Time;durP1;ratioP1;P1;durP2;ratioP2;P2;SDS_P1;SDS_P2;PMS_P1;PMS_P2;Temp;Humidity;BMP_temperature;BMP_pressure;BME280_temperature;BME280_humidity;BME280_pressure;Samples;Min_cycle;Max_cycle;Signal;HPM_P1;HPM_P2
2023/08/15 00:02:07;;;;;;;5.20;4.10;;;;;;;25.28;49.55;101088.91;21064620;28;20052;-58
2023/08/15 00:12:09;;;;;;;4.00;3.60;;;;;;;25.19;49.28;101087.09;21069480;28;20403;-57
2023/08/15 00:22:10;;;;;;;3.83;3.38;;;;;;;25.29;48.97;101127.00;21070392;28;20028;-56
2023/08/15 00:32:11;;;;;;;3.40;3.13;;;;;;;25.25;48.95;101120.34;21064349;28;20441;-58
2023/08/15 00:42:13;;;;;;;3.75;3.42;;;;;;;25.22;48.47;101109.75;21063280;28;20144;-58
2023/08/15 00:52:16;;;;;;;4.05;3.65;;;;;;;25.22;48.66;101092.09;21062988;28;20475;-57
2023/08/15 01:02:17;;;;;;;6.97;5.43;;;;;;;25.14;48.66;101085.22;21074363;28;20035;-57
2023/08/15 01:12:31;;;;;;;8.00;6.35;;;;;;;25.13;48.31;101065.94;21083087;28;20051;-57
2023/08/15 01:22:34;;;;;;;10.45;6.50;;;;;;;25.09;48.69;101054.53;21076810;28;20035;-58
2023/08/15 01:32:48;;;;;;;13.00;7.10;;;;;;;25.31;53.82;101035.06;21078279;28;20044;-57
2023/08/15 01:42:55;;;;;;;8.25;6.18;;;;;;;25.58;54.33;101011.84;21076244;28;20048;-59
2023/08/15 01:52:56;;;;;;;9.60;6.25;;;;;;;25.83;53.95;101002.09;21084055;28;20066;-59
2023/08/15 02:02:58;;;;;;;9.27;6.40;;;;;;;25.98;54.22;100983.28;21073377;28;20036;-61
2023/08/15 02:12:59;;;;;;;11.27;6.72;;;;;;;26.12;54.08;100970.09;21064419;28;20098;-57
2023/08/15 02:23:01;;;;;;;8.85;6.05;;;;;;;26.24;53.56;100987.19;21065648;28;20109;-60
2023/08/15 02:33:02;;;;;;;8.85;6.63;;;;;;;26.33;53.37;100964.81;21066215;28;20074;-59
2023/08/15 02:43:04;;;;;;;8.05;5.72;;;;;;;26.47;53.66;100947.97;21056308;28;20028;-59
2023/08/15 02:53:05;;;;;;;9.00;6.03;;;;;;;26.50;53.73;100925.72;21063730;28;20399;-59
2023/08/15 03:03:06;;;;;;;7.00;5.57;;;;;;;26.53;53.63;100877.38;21072945;28;20449;-58
2023/08/15 03:13:08;;;;;;;8.48;5.72;;;;;;;26.71;53.59;100889.53;21072079;28;20399;-58
2023/08/15 03:23:11;;;;;;;8.30;6.05;;;;;;;26.78;53.72;100864.63;21061745;28;20044;-59
2023/08/15 03:33:12;;;;;;;9.23;6.55;;;;;;;26.86;53.85;100826.50;21077315;28;20400;-58
2023/08/15 03:43:14;;;;;;;9.45;6.32;;;;;;;26.93;53.81;100809.19;21080938;28;20050;-58
2023/08/15 03:53:15;;;;;;;9.43;6.60;;;;;;;26.99;54.09;100807.91;21077254;28;20471;-59
2023/08/15 04:03:16;;;;;;;9.45;5.97;;;;;;;27.03;54.01;100792.03;21071670;28;20047;-59
2023/08/15 04:13:18;;;;;;;8.23;5.97;;;;;;;27.10;53.81;100776.38;21077229;28;20113;-59
2023/08/15 04:23:19;;;;;;;8.27;6.55;;;;;;;27.15;54.08;100755.75;21069920;28;20043;-59
2023/08/15 04:33:21;;;;;;;5.80;5.20;;;;;;;27.20;53.97;100751.94;21071268;28;20048;-59
2023/08/15 04:43:26;;;;;;;6.45;5.53;;;;;;;27.19;53.87;100719.41;21067448;28;20043;-58
2023/08/15 04:53:28;;;;;;;6.88;5.65;;;;;;;27.29;53.93;100717.09;21057832;28;20086;-59
2023/08/15 05:03:32;;;;;;;7.80;5.38;;;;;;;27.31;54.12;100708.34;21063448;28;20048;-59
2023/08/15 05:13:34;;;;;;;8.10;6.18;;;;;;;27.36;54.15;100689.34;21057863;28;20455;-59
2023/08/15 05:23:35;;;;;;;6.55;5.30;;;;;;;27.41;54.14;100679.91;21064708;28;20063;-57
2023/08/15 05:33:36;;;;;;;6.07;5.47;;;;;;;27.45;54.19;100666.03;21062758;28;20504;-59
2023/08/15 05:43:38;;;;;;;6.80;4.65;;;;;;;27.49;54.19;100638.88;21010864;28;20468;-59
2023/08/15 05:53:42;;;;;;;6.72;5.07;;;;;;;27.48;54.11;100612.78;21074552;28;20078;-59
2023/08/15 06:03:43;;;;;;;6.38;5.20;;;;;;;27.52;54.04;100608.13;21079121;28;20040;-59
2023/08/15 06:13:45;;;;;;;6.75;5.47;;;;;;;27.58;54.14;100572.25;21077515;28;20396;-59
2023/08/15 06:23:46;;;;;;;7.25;5.63;;;;;;;27.57;54.27;100542.50;21060522;28;20385;-59
2023/08/15 06:33:47;;;;;;;6.60;5.35;;;;;;;27.61;54.08;100512.56;21073005;28;20552;-59
2023/08/15 06:43:51;;;;;;;5.97;5.05;;;;;;;27.16;51.97;100498.16;21075508;28;20040;-58
2023/08/15 06:53:59;;;;;;;5.90;4.78;;;;;;;26.78;51.72;100494.06;21067031;28;20556;-58
2023/08/15 07:04:00;;;;;;;6.85;5.20;;;;;;;26.63;50.68;100503.00;21068908;28;20472;-58
2023/08/15 07:14:02;;;;;;;6.55;4.88;;;;;;;26.43;50.39;100512.88;21074750;28;20449;-59
2023/08/15 07:24:03;;;;;;;6.45;5.68;;;;;;;26.35;50.43;100499.66;21071678;28;20044;-59
2023/08/15 07:34:05;;;;;;;6.10;4.70;;;;;;;26.20;49.89;100488.91;21067900;28;20097;-58
2023/08/15 07:44:06;;;;;;;5.43;4.93;;;;;;;26.14;49.75;100496.66;21071628;28;20051;-59
2023/08/15 07:54:10;;;;;;;5.60;5.00;;;;;;;26.08;49.73;100489.56;21043348;28;20040;-59
2023/08/15 08:04:12;;;;;;;5.18;4.63;;;;;;;26.03;49.69;100478.50;21066061;28;20047;-59
2023/08/15 08:14:16;;;;;;;6.25;5.38;;;;;;;25.87;49.61;100499.72;21064660;28;20564;-59
2023/08/15 08:24:18;;;;;;;5.72;4.95;;;;;;;25.87;49.99;100496.91;21064755;28;20047;-59
2023/08/15 08:34:22;;;;;;;5.38;4.63;;;;;;;25.78;49.61;100480.88;21069652;28;20418;-59
2023/08/15 08:44:26;;;;;;;6.55;5.07;;;;;;;25.72;49.19;100481.34;21071082;28;20045;-58
2023/08/15 08:54:27;;;;;;;6.03;5.25;;;;;;;25.68;49.69;100489.56;21067294;28;20032;-59
2023/08/15 09:04:29;;;;;;;6.93;5.70;;;;;;;25.66;49.70;100497.50;21055798;28;20066;-59
2023/08/15 09:14:30;;;;;;;5.00;4.50;;;;;;;25.61;49.67;100528.44;21063257;28;20044;-58
2023/08/15 09:24:32;;;;;;;5.07;4.57;;;;;;;25.53;49.78;100527.25;21078647;28;20048;-59
2023/08/15 09:34:33;;;;;;;5.38;4.72;;;;;;;25.50;50.15;100533.50;21078865;28;20039;-59
2023/08/15 09:44:37;;;;;;;5.93;5.25;;;;;;;25.48;50.16;100546.19;21077988;28;20040;-59
2023/08/15 09:54:40;;;;;;;5.78;4.85;;;;;;;25.45;50.22;100542.03;21079186;28;20044;-58
2023/08/15 10:04:44;;;;;;;5.80;4.78;;;;;;;25.40;49.90;100544.97;21079550;28;20152;-58
2023/08/15 10:14:46;;;;;;;5.45;4.85;;;;;;;25.37;49.80;100561.59;21076774;28;20204;-58
2023/08/15 10:24:50;;;;;;;5.82;5.22;;;;;;;25.20;50.07;100563.16;21073625;28;20040;-60
2023/08/15 10:34:54;;;;;;;5.63;4.75;;;;;;;25.30;49.87;100593.69;21078890;28;20449;-59
2023/08/15 10:44:59;;;;;;;6.30;4.70;;;;;;;25.20;49.16;100602.34;21069807;28;20032;-59
2023/08/15 10:55:00;;;;;;;6.63;4.88;;;;;;;25.42;54.78;100607.09;21076910;28;20052;-59
2023/08/15 11:05:02;;;;;;;6.13;5.00;;;;;;;25.70;55.89;100606.94;21081000;28;20066;-59
2023/08/15 11:15:09;;;;;;;5.57;4.57;;;;;;;25.87;55.67;100598.66;21078692;28;20445;-59
2023/08/15 11:25:10;;;;;;;5.10;4.50;;;;;;;26.07;55.66;100619.66;21071428;28;20051;-58
2023/08/15 11:35:12;;;;;;;36.38;6.68;;;;;;;26.21;55.04;100626.00;21061179;28;20044;-59
2023/08/15 11:45:17;;;;;;;20.27;5.05;;;;;;;26.41;54.91;100634.97;21073410;28;20086;-60
2023/08/15 11:55:19;;;;;;;122.10;11.85;;;;;;;26.51;55.56;100641.13;21061847;28;20055;-58
2023/08/15 12:05:21;;;;;;;21.45;6.85;;;;;;;26.57;55.12;100645.47;21070120;28;20109;-58
2023/08/15 12:15:22;;;;;;;20.08;5.55;;;;;;;26.64;55.31;100656.19;21078342;28;20093;-59
2023/08/15 12:25:27;;;;;;;15.95;5.45;;;;;;;26.68;55.28;100674.03;21077626;28;20044;-59
2023/08/15 12:35:32;;;;;;;10.13;4.93;;;;;;;26.81;54.83;100689.91;21076925;28;20495;-59
2023/08/15 12:45:33;;;;;;;5.95;4.60;;;;;;;26.89;54.75;100699.50;21073504;28;20044;-58
2023/08/15 12:55:37;;;;;;;7.97;4.75;;;;;;;26.84;54.33;100678.00;21079800;28;20483;-57
2023/08/15 13:05:39;;;;;;;9.02;4.93;;;;;;;27.01;54.43;100684.81;21069339;28;20479;-59
2023/08/15 13:15:40;;;;;;;8.00;4.78;;;;;;;27.10;54.39;100674.44;21092187;28;20655;-60
2023/08/15 13:25:41;;;;;;;9.60;4.45;;;;;;;27.14;54.46;100666.19;21073013;28;20020;-58
2023/08/15 13:35:48;;;;;;;27.65;6.03;;;;;;;27.26;54.67;100639.09;21060854;28;20101;-59
2023/08/15 13:45:49;;;;;;;16.10;5.80;;;;;;;27.34;54.43;100663.53;21066296;28;20032;-59
2023/08/15 13:55:55;;;;;;;14.48;4.82;;;;;;;26.80;52.12;100651.78;21074716;28;20276;-59
2023/08/15 14:05:58;;;;;;;13.90;4.78;;;;;;;26.48;51.28;100674.63;21087467;28;20031;-59
2023/08/15 14:16:02;;;;;;;10.30;4.45;;;;;;;26.28;52.56;100688.06;21079853;28;20445;-59
2023/08/15 14:26:03;;;;;;;10.13;4.10;;;;;;;26.24;52.98;100681.44;21084329;28;20040;-59
2023/08/15 14:36:20;;;;;;;6.47;3.92;;;;;;;26.19;53.29;100678.78;21066188;28;20486;-59
2023/08/15 14:46:21;;;;;;;14.20;5.32;;;;;;;26.29;53.63;100674.84;21061801;28;20052;-60
2023/08/15 14:56:28;;;;;;;13.18;4.32;;;;;;;26.13;53.67;100657.66;21058829;28;20105;-60
2023/08/15 15:06:32;;;;;;;12.68;4.57;;;;;;;26.05;54.15;100661.22;21071173;28;20032;-59
2023/08/15 15:16:34;;;;;;;10.23;4.50;;;;;;;26.10;54.07;100669.50;21066019;28;20052;-60
2023/08/15 15:26:36;;;;;;;8.13;4.18;;;;;;;26.06;54.39;100679.72;21067106;28;20028;-59
2023/08/15 15:36:37;;;;;;;14.80;4.47;;;;;;;26.09;54.65;100693.09;21066303;28;20048;-60
2023/08/15 15:46:38;;;;;;;10.95;3.78;;;;;;;26.04;54.18;100688.44;21065735;28;20487;-61
2023/08/15 15:56:40;;;;;;;10.55;4.65;;;;;;;25.99;53.93;100690.56;21045652;28;20113;-60
2023/08/15 16:06:41;;;;;;;9.52;3.95;;;;;;;25.99;54.30;100662.53;21073885;28;20074;-60
2023/08/15 16:16:43;;;;;;;7.10;3.90;;;;;;;26.01;54.28;100660.22;21068789;28;20052;-58
2023/08/15 16:26:44;;;;;;;8.02;3.60;;;;;;;26.02;54.38;100659.06;21085870;28;20074;-59
2023/08/15 16:36:51;;;;;;;9.77;3.53;;;;;;;25.84;54.38;100641.31;21053604;28;20058;-60
2023/08/15 16:46:52;;;;;;;10.02;3.60;;;;;;;26.00;54.53;100647.34;21072507;28;20044;-60
2023/08/15 16:56:54;;;;;;;6.40;3.22;;;;;;;25.96;54.61;100646.34;21070589;28;20040;-59
2023/08/15 17:06:55;;;;;;;5.15;3.33;;;;;;;26.01;54.55;100649.84;21066365;28;20058;-60
2023/08/15 17:16:57;;;;;;;6.72;3.10;;;;;;;26.03;54.51;100646.72;21060545;28;20044;-60
2023/08/15 17:26:58;;;;;;;4.82;3.22;;;;;;;25.98;54.25;100652.44;21066741;28;20043;-60
2023/08/15 17:37:03;;;;;;;5.93;3.30;;;;;;;25.94;54.30;100640.25;21072974;28;20512;-60
2023/08/15 17:47:05;;;;;;;4.90;3.28;;;;;;;25.94;54.02;100643.06;21064200;28;20066;-59
2023/08/15 17:57:07;;;;;;;5.00;3.45;;;;;;;25.87;53.90;100642.66;21077324;28;20089;-59
2023/08/15 18:07:08;;;;;;;7.30;3.30;;;;;;;25.95;53.95;100662.34;21088161;28;20040;-60
2023/08/15 18:17:10;;;;;;;3.38;2.75;;;;;;;25.82;54.40;100629.63;21061667;28;20040;-60
2023/08/15 18:27:11;;;;;;;3.53;3.22;;;;;;;25.94;54.38;100657.06;21030901;28;20045;-60
2023/08/15 18:37:15;;;;;;;3.60;2.90;;;;;;;25.93;54.38;100655.38;21067817;28;20036;-59
2023/08/15 18:47:17;;;;;;;3.97;3.13;;;;;;;25.91;54.48;100652.91;21068904;28;20040;-60
2023/08/15 18:57:18;;;;;;;3.85;3.08;;;;;;;25.88;54.75;100644.31;21057716;28;20048;-59
2023/08/15 19:07:20;;;;;;;3.30;2.72;;;;;;;25.85;54.73;100618.59;21079781;28;20403;-59
2023/08/15 19:17:21;;;;;;;3.15;2.85;;;;;;;25.86;54.57;100630.63;21080079;28;20047;-60
2023/08/15 19:27:22;;;;;;;3.70;2.90;;;;;;;25.89;54.49;100617.94;21053052;28;20093;-60
2023/08/15 19:37:24;;;;;;;3.58;3.28;;;;;;;25.89;54.63;100598.31;21058174;28;20048;-60
2023/08/15 19:47:26;;;;;;;3.40;3.05;;;;;;;25.84;54.70;100583.31;21071513;28;20432;-59
2023/08/15 19:57:27;;;;;;;3.63;3.15;;;;;;;25.85;53.61;100579.34;21078433;28;20117;-58
2023/08/15 20:07:28;;;;;;;3.10;2.80;;;;;;;25.89;54.58;100573.09;21057343;28;20037;-58
2023/08/15 20:17:30;;;;;;;5.03;3.20;;;;;;;25.89;55.02;100592.72;21046802;28;20040;-59
2023/08/15 20:27:32;;;;;;;3.47;3.17;;;;;;;25.90;55.15;100585.97;21065251;28;20388;-59
2023/08/15 20:37:34;;;;;;;3.92;3.30;;;;;;;25.91;54.86;100593.22;21073993;28;20116;-59
2023/08/15 20:47:39;;;;;;;3.85;3.42;;;;;;;25.85;55.00;100587.75;21063166;28;20097;-60
2023/08/15 20:57:40;;;;;;;4.22;3.80;;;;;;;25.71;55.01;100573.00;21064533;28;20032;-60
2023/08/15 21:07:42;;;;;;;4.28;3.88;;;;;;;25.81;55.24;100597.97;21061726;28;20380;-60
2023/08/15 21:17:43;;;;;;;4.35;3.95;;;;;;;25.82;55.60;100591.22;21058587;28;20383;-60
2023/08/15 21:27:44;;;;;;;4.93;4.50;;;;;;;25.97;55.65;100572.28;21091815;28;20043;-60
2023/08/15 21:37:46;;;;;;;4.95;4.00;;;;;;;26.00;55.40;100592.09;21089886;28;20070;-59
2023/08/15 21:47:47;;;;;;;6.85;5.55;;;;;;;26.03;55.65;100585.88;21075861;28;20053;-59
2023/08/15 21:57:51;;;;;;;10.35;5.03;;;;;;;26.05;55.31;100577.13;21068652;28;20556;-59
2023/08/15 22:07:53;;;;;;;8.43;5.65;;;;;;;26.05;55.33;100560.28;21046278;28;20550;-59
2023/08/15 22:17:54;;;;;;;7.65;5.57;;;;;;;26.08;55.13;100529.63;21003064;28;20028;-59
2023/08/15 22:27:58;;;;;;;7.55;5.45;;;;;;;26.07;55.29;100541.16;21002540;28;20064;-59
2023/08/15 22:38:00;;;;;;;6.78;6.03;;;;;;;26.09;55.28;100550.09;21001799;28;20045;-59
2023/08/15 22:48:01;;;;;;;7.65;5.88;;;;;;;26.10;55.01;100579.78;21001178;28;20044;-61
2023/08/15 22:58:03;;;;;;;5.72;5.13;;;;;;;26.02;54.99;100567.38;21000406;28;20510;-60
2023/08/15 23:08:04;;;;;;;6.68;5.90;;;;;;;26.05;54.68;100608.78;21064103;28;20040;-60
2023/08/15 23:18:05;;;;;;;5.95;5.07;;;;;;;26.08;54.40;100604.50;21083250;28;20471;-60
2023/08/15 23:28:07;;;;;;;7.38;5.68;;;;;;;26.02;53.96;100614.22;21082239;28;20081;-60
2023/08/15 23:38:08;;;;;;;6.03;5.43;;;;;;;26.03;53.95;100652.34;21080919;28;20176;-60
2023/08/15 23:48:09;;;;;;;5.88;5.28;;;;;;;26.02;53.94;100707.56;21008043;28;20058;-60
2023/08/15 23:58:11;;;;;;;5.85;5.25;;;;;;;26.02;54.35;100706.72;20995523;28;20031;-60
